createdAt,value
2022-10-20T00:01:32.675Z,12.99
2022-10-20T00:04:05.122Z,13.05
2022-10-20T00:06:36.350Z,12.96
2022-10-20T00:09:07.694Z,13.03
2022-10-20T00:11:37.383Z,12.75
2022-10-20T00:14:07.869Z,12.95
2022-10-20T00:16:40.184Z,12.93
2022-10-20T00:19:12.661Z,12.79
2022-10-20T00:21:42.297Z,12.87
2022-10-20T00:24:11.975Z,12.75
2022-10-20T00:26:41.693Z,12.73
2022-10-20T00:29:11.367Z,12.61
2022-10-20T00:31:41.031Z,12.70
2022-10-20T00:34:13.836Z,12.72
2022-10-20T00:36:46.304Z,12.67
2022-10-20T00:39:18.593Z,12.83
2022-10-20T00:41:48.218Z,12.86
2022-10-20T00:44:47.899Z,12.83
2022-10-20T00:47:22.304Z,12.76
2022-10-20T00:49:55.285Z,12.58
2022-10-20T00:52:25.782Z,12.67
2022-10-20T00:54:55.511Z,12.60
2022-10-20T00:57:25.243Z,12.65
2022-10-20T00:59:55.024Z,12.63
2022-10-20T01:02:24.729Z,12.53
2022-10-20T01:04:57.179Z,12.61
2022-10-20T01:07:26.881Z,12.34
2022-10-20T01:09:57.158Z,12.60
2022-10-20T01:12:36.634Z,12.65
2022-10-20T01:15:15.225Z,12.54
2022-10-20T01:17:54.750Z,12.62
2022-10-20T01:21:07.844Z,12.73
2022-10-20T01:23:56.812Z,12.62
2022-10-20T01:26:46.634Z,12.47
2022-10-20T01:29:27.750Z,12.63
2022-10-20T01:32:08.176Z,12.55
2022-10-20T01:34:46.910Z,12.50
2022-10-20T01:37:40.535Z,12.41
2022-10-20T01:40:23.418Z,12.45
2022-10-20T01:42:56.349Z,12.29
2022-10-20T01:45:32.819Z,12.43
2022-10-20T01:48:08.083Z,12.51
2022-10-20T01:50:39.741Z,12.48
2022-10-20T01:53:10.145Z,12.39
2022-10-20T01:55:41.264Z,12.41
2022-10-20T01:58:32.721Z,12.40
2022-10-20T02:01:15.614Z,12.57
2022-10-20T02:03:52.297Z,12.57
2022-10-20T02:06:32.857Z,12.59
2022-10-20T02:09:06.257Z,12.48
2022-10-20T02:11:46.498Z,12.26
2022-10-20T02:14:20.088Z,12.31
2022-10-20T02:16:56.064Z,12.30
2022-10-20T02:19:29.363Z,12.48
2022-10-20T02:22:00.306Z,12.26
2022-10-20T02:24:34.993Z,12.16
2022-10-20T02:27:08.353Z,11.96
2022-10-20T02:29:42.910Z,12.04
2022-10-20T02:32:16.080Z,12.22
2022-10-20T02:34:46.383Z,12.14
2022-10-20T02:40:07.096Z,12.32
2022-10-20T02:42:37.496Z,12.30
2022-10-20T02:45:08.111Z,11.97
2022-10-20T02:47:40.390Z,11.93
2022-10-20T02:50:11.515Z,11.79
2022-10-20T02:52:41.490Z,11.92
2022-10-20T02:55:11.827Z,12.07
2022-10-20T02:57:41.500Z,12.29
2022-10-20T03:00:12.789Z,12.18
2022-10-20T03:02:45.085Z,12.13
2022-10-20T03:05:14.771Z,12.23
2022-10-20T03:07:44.475Z,12.22
2022-10-20T03:10:14.141Z,12.36
2022-10-20T03:12:43.844Z,12.14
2022-10-20T03:15:14.658Z,12.34
2022-10-20T03:17:46.963Z,12.22
2022-10-20T03:20:16.634Z,11.98
2022-10-20T03:22:46.317Z,11.93
2022-10-20T03:25:15.970Z,12.04
2022-10-20T03:27:45.682Z,12.19
2022-10-20T03:30:15.354Z,12.17
2022-10-20T03:32:47.766Z,12.05
2022-10-20T03:35:17.673Z,12.18
2022-10-20T03:37:47.324Z,12.07
2022-10-20T03:40:17.278Z,11.95
2022-10-20T03:42:46.966Z,11.98
2022-10-20T03:45:18.658Z,11.97
2022-10-20T03:47:51.563Z,12.04
2022-10-20T03:50:21.248Z,12.09
2022-10-20T03:52:51.108Z,12.17
2022-10-20T03:55:22.075Z,12.03
2022-10-20T03:57:51.733Z,12.00
2022-10-20T04:00:21.932Z,12.21
2022-10-20T04:02:54.411Z,12.16
2022-10-20T04:05:25.004Z,12.13
2022-10-20T04:07:54.658Z,12.18
2022-10-20T04:10:24.391Z,12.30
2022-10-20T04:12:54.292Z,12.35
2022-10-20T04:15:24.026Z,12.38
2022-10-20T04:17:56.325Z,12.37
2022-10-20T04:20:26.116Z,12.32
2022-10-20T04:22:55.769Z,12.39
2022-10-20T04:25:25.426Z,12.20
2022-10-20T04:27:55.128Z,12.19
2022-10-20T04:30:24.845Z,12.01
2022-10-20T04:32:57.413Z,12.18
2022-10-20T04:35:27.027Z,12.03
2022-10-20T04:37:57.481Z,12.03
2022-10-20T04:40:27.165Z,12.19
2022-10-20T04:42:56.912Z,12.26
2022-10-20T04:45:26.636Z,12.23
2022-10-20T04:47:58.919Z,12.23
2022-10-20T04:50:28.624Z,12.10
2022-10-20T04:52:58.341Z,12.08
2022-10-20T04:55:28.106Z,12.17
2022-10-20T04:57:57.831Z,12.20
2022-10-20T05:00:27.507Z,12.41
2022-10-20T05:03:00.672Z,12.21
2022-10-20T05:05:30.392Z,12.32
2022-10-20T05:08:00.169Z,12.37
2022-10-20T05:10:33.139Z,12.33
2022-10-20T05:13:06.181Z,12.16
2022-10-20T05:15:35.840Z,12.08
2022-10-20T05:18:08.086Z,12.10
2022-10-20T05:20:45.844Z,12.20
2022-10-20T05:23:15.711Z,12.10
2022-10-20T05:25:45.505Z,12.16
2022-10-20T05:28:15.436Z,12.17
2022-10-20T05:30:45.387Z,12.25
2022-10-20T05:33:17.690Z,12.20
2022-10-20T05:35:47.429Z,12.26
2022-10-20T05:38:17.079Z,12.30
2022-10-20T05:40:46.674Z,12.34
2022-10-20T05:43:17.420Z,12.29
2022-10-20T05:45:47.303Z,12.24
2022-10-20T05:48:19.544Z,12.24
2022-10-20T05:50:49.169Z,12.14
2022-10-20T05:53:18.802Z,12.26
2022-10-20T05:55:48.398Z,12.33
2022-10-20T05:58:19.616Z,12.14
2022-10-20T06:00:53.844Z,12.19
2022-10-20T06:03:28.301Z,12.11
2022-10-20T06:06:00.482Z,12.21
2022-10-20T06:08:32.996Z,12.26
2022-10-20T06:11:06.927Z,12.17
2022-10-20T06:13:36.957Z,12.13
2022-10-20T06:16:07.757Z,12.22
2022-10-20T06:18:40.759Z,12.35
2022-10-20T06:21:13.014Z,12.21
2022-10-20T06:23:42.833Z,12.26
2022-10-20T06:26:17.536Z,12.20
2022-10-20T06:28:48.941Z,12.08
2022-10-20T06:31:20.879Z,12.17
2022-10-20T06:33:54.082Z,12.14
2022-10-20T06:36:25.356Z,12.23
2022-10-20T06:38:57.094Z,12.19
2022-10-20T06:41:27.872Z,12.11
2022-10-20T06:43:59.567Z,12.14
2022-10-20T06:46:30.979Z,12.18
2022-10-20T06:49:04.025Z,12.32
2022-10-20T06:51:34.054Z,12.35
2022-10-20T06:54:04.302Z,12.32
2022-10-20T06:56:36.088Z,12.60
2022-10-20T06:59:06.358Z,12.57
2022-10-20T07:01:37.753Z,12.53
2022-10-20T07:04:13.304Z,12.45
2022-10-20T07:06:44.539Z,12.35
2022-10-20T07:09:17.609Z,12.51
2022-10-20T07:11:47.506Z,12.70
2022-10-20T07:14:17.440Z,12.78
2022-10-20T07:16:47.152Z,13.06
2022-10-20T07:19:19.457Z,13.30
2022-10-20T07:21:49.271Z,13.38
2022-10-20T07:24:19.076Z,13.31
2022-10-20T07:26:48.953Z,13.60
2022-10-20T07:29:20.276Z,13.68
2022-10-20T07:31:51.290Z,13.48
2022-10-20T07:34:26.800Z,13.56
2022-10-20T07:36:57.975Z,13.44
2022-10-20T07:39:28.577Z,13.44
2022-10-20T07:41:58.312Z,13.23
2022-10-20T07:44:27.957Z,13.27
2022-10-20T07:46:57.752Z,13.46
2022-10-20T07:49:45.577Z,13.65
2022-10-20T07:52:16.821Z,13.85
2022-10-20T07:54:46.882Z,14.19
2022-10-20T07:57:16.594Z,14.40
2022-10-20T07:59:46.406Z,14.50
2022-10-20T08:02:16.614Z,14.39
2022-10-20T08:04:49.002Z,14.92
2022-10-20T08:07:19.068Z,14.63
2022-10-20T08:09:48.767Z,15.04
2022-10-20T08:12:18.490Z,15.28
2022-10-20T08:14:48.283Z,15.62
2022-10-20T08:17:17.947Z,15.66
2022-10-20T08:20:06.154Z,15.49
2022-10-20T08:22:36.089Z,15.15
2022-10-20T08:25:06.483Z,15.71
2022-10-20T08:27:36.176Z,15.93
2022-10-20T08:30:22.962Z,16.29
2022-10-20T08:32:54.637Z,15.93
2022-10-20T08:35:27.014Z,15.80
2022-10-20T08:37:57.462Z,15.85
2022-10-20T08:40:28.911Z,15.43
2022-10-20T08:42:58.899Z,15.58
2022-10-20T08:45:32.723Z,15.70
2022-10-20T08:48:06.127Z,15.43
2022-10-20T08:50:39.237Z,15.46
2022-10-20T08:53:11.924Z,15.46
2022-10-20T08:55:42.259Z,15.43
2022-10-20T08:58:16.596Z,15.38
2022-10-20T09:00:47.669Z,15.51
2022-10-20T09:03:22.038Z,15.82
2022-10-20T09:05:59.455Z,15.89
2022-10-20T09:08:32.653Z,15.88
2022-10-20T09:11:03.507Z,15.92
2022-10-20T09:13:35.647Z,15.96
2022-10-20T09:16:09.265Z,16.16
2022-10-20T09:18:39.099Z,16.23
2022-10-20T09:21:16.368Z,16.36
2022-10-20T09:23:48.598Z,16.25
2022-10-20T09:26:30.913Z,16.17
2022-10-20T09:29:14.221Z,16.47
2022-10-20T09:31:46.347Z,16.58
2022-10-20T09:34:27.698Z,16.58
2022-10-20T09:37:05.697Z,16.42
2022-10-20T09:39:45.473Z,16.67
2022-10-20T09:42:17.972Z,16.59
2022-10-20T09:44:52.744Z,16.87
2022-10-20T09:47:23.580Z,16.92
2022-10-20T09:50:01.188Z,16.73
2022-10-20T09:52:44.763Z,16.61
2022-10-20T09:55:30.073Z,16.67
2022-10-20T09:58:02.997Z,16.39
2022-10-20T10:00:37.939Z,16.57
2022-10-20T10:03:14.581Z,16.41
2022-10-20T10:05:44.303Z,16.46
2022-10-20T10:08:20.125Z,16.48
2022-10-20T10:11:02.080Z,16.34
2022-10-20T10:13:34.010Z,16.36
2022-10-20T10:16:09.944Z,16.15
2022-10-20T10:18:44.212Z,15.99
2022-10-20T10:21:18.925Z,16.12
2022-10-20T10:23:58.858Z,16.04
2022-10-20T10:26:46.773Z,16.04
2022-10-20T10:29:27.345Z,15.83
2022-10-20T10:32:03.392Z,15.89
2022-10-20T10:34:42.762Z,16.32
2022-10-20T10:37:17.403Z,16.43
2022-10-20T10:39:50.130Z,16.84
2022-10-20T10:42:39.841Z,17.27
2022-10-20T10:45:22.392Z,17.31
2022-10-20T10:48:18.969Z,17.13
2022-10-20T10:50:56.000Z,16.93
2022-10-20T10:53:46.577Z,16.33
2022-10-20T10:56:32.443Z,16.86
2022-10-20T10:59:08.646Z,16.92
2022-10-20T11:01:54.133Z,16.76
2022-10-20T11:04:52.544Z,16.67
2022-10-20T11:07:33.340Z,16.49
2022-10-20T11:10:12.986Z,16.48
2022-10-20T11:13:10.198Z,16.13
2022-10-20T11:15:53.804Z,16.17
2022-10-20T11:18:45.020Z,15.95
2022-10-20T11:21:25.599Z,16.06
2022-10-20T11:24:20.615Z,16.07
2022-10-20T11:26:54.627Z,15.94
2022-10-20T11:29:33.141Z,15.94
2022-10-20T11:32:13.298Z,15.89
2022-10-20T11:34:53.039Z,16.00
2022-10-20T11:37:28.507Z,15.89
2022-10-20T11:40:07.565Z,16.06
2022-10-20T11:42:44.553Z,15.94
2022-10-20T11:45:34.558Z,16.07
2022-10-20T11:48:15.145Z,16.22
2022-10-20T11:50:51.305Z,16.05
2022-10-20T11:53:39.905Z,16.32
2022-10-20T11:56:43.543Z,16.36
2022-10-20T11:59:48.242Z,15.87
2022-10-20T12:02:47.091Z,16.16
2022-10-20T12:05:43.916Z,15.92
2022-10-20T12:08:37.574Z,16.14
2022-10-20T12:11:16.467Z,15.95
2022-10-20T12:14:00.629Z,16.04
2022-10-20T12:17:00.388Z,15.93
2022-10-20T12:19:33.882Z,16.03
2022-10-20T12:22:05.394Z,15.99
2022-10-20T12:24:39.452Z,15.94
2022-10-20T12:27:21.512Z,15.97
2022-10-20T12:29:56.979Z,15.94
2022-10-20T12:32:37.740Z,16.21
2022-10-20T12:35:30.721Z,16.01
2022-10-20T12:38:02.523Z,16.03
2022-10-20T12:40:35.285Z,16.13
2022-10-20T12:43:05.101Z,16.00
2022-10-20T12:45:42.997Z,15.99
2022-10-20T12:48:21.985Z,15.93
2022-10-20T12:50:55.594Z,15.95
2022-10-20T12:53:28.944Z,15.99
2022-10-20T12:56:02.359Z,15.97
2022-10-20T12:58:34.393Z,15.97
2022-10-20T13:01:13.871Z,15.93
2022-10-20T13:03:47.109Z,15.92
2022-10-20T13:06:47.499Z,15.96
2022-10-20T13:09:26.871Z,15.88
2022-10-20T13:12:06.046Z,15.89
2022-10-20T13:14:51.451Z,15.79
2022-10-20T13:17:33.685Z,15.73
2022-10-20T13:20:10.176Z,15.67
2022-10-20T13:22:48.531Z,15.58
2022-10-20T13:25:38.316Z,15.60
2022-10-20T13:28:10.645Z,15.54
2022-10-20T13:30:53.486Z,15.65
2022-10-20T13:33:38.861Z,15.57
2022-10-20T13:36:18.585Z,15.72
2022-10-20T13:38:57.004Z,15.68
2022-10-20T13:41:37.006Z,15.60
2022-10-20T13:44:16.602Z,15.71
2022-10-20T13:46:58.358Z,15.85
2022-10-20T13:49:48.277Z,15.85
2022-10-20T13:52:21.697Z,15.93
2022-10-20T13:54:55.137Z,15.84
2022-10-20T13:57:30.403Z,15.84
2022-10-20T14:00:02.528Z,15.78
2022-10-20T14:02:35.193Z,15.82
2022-10-20T14:05:08.141Z,15.72
2022-10-20T14:07:42.940Z,15.69
2022-10-20T14:10:28.027Z,15.63
2022-10-20T14:12:59.127Z,15.68
2022-10-20T14:15:35.822Z,15.67
2022-10-20T14:18:07.884Z,15.58
2022-10-20T14:20:41.934Z,15.57
2022-10-20T14:23:14.197Z,15.61
2022-10-20T14:25:48.069Z,15.58
2022-10-20T14:28:22.573Z,15.60
2022-10-20T14:30:54.506Z,15.67
2022-10-20T14:33:24.406Z,15.68
2022-10-20T14:35:56.526Z,15.76
2022-10-20T14:38:38.990Z,15.70
2022-10-20T14:41:12.027Z,15.74
2022-10-20T14:43:46.221Z,15.65
2022-10-20T14:46:25.415Z,15.77
2022-10-20T14:48:55.234Z,15.68
2022-10-20T14:51:40.370Z,15.66
2022-10-20T14:54:17.916Z,15.70
2022-10-20T14:56:52.343Z,15.78
2022-10-20T14:59:24.712Z,15.73
2022-10-20T15:02:08.828Z,15.72
2022-10-20T15:04:39.958Z,15.65
2022-10-20T15:07:16.317Z,15.68
2022-10-20T15:09:48.176Z,15.64
2022-10-20T15:12:22.934Z,15.65
2022-10-20T15:14:54.413Z,15.69
2022-10-20T15:17:35.166Z,15.60
2022-10-20T15:20:37.568Z,15.55
2022-10-20T15:23:11.259Z,15.54
2022-10-20T15:25:48.453Z,15.64
2022-10-20T15:28:29.750Z,15.58
2022-10-20T15:31:00.035Z,15.60
2022-10-20T15:33:30.127Z,15.74
2022-10-20T15:36:01.796Z,15.63
2022-10-20T15:38:31.733Z,15.58
2022-10-20T15:41:03.620Z,15.52
2022-10-20T15:43:35.938Z,15.48
2022-10-20T15:46:06.098Z,15.45
2022-10-20T15:48:35.842Z,15.49
2022-10-20T15:51:06.150Z,15.57
2022-10-20T15:53:35.894Z,15.52
2022-10-20T15:56:05.663Z,15.46
2022-10-20T15:58:39.769Z,15.49
2022-10-20T16:01:10.396Z,15.49
2022-10-20T16:03:41.463Z,15.52
2022-10-20T16:06:13.661Z,15.45
2022-10-20T16:08:43.493Z,15.40
2022-10-20T16:11:14.747Z,15.52
2022-10-20T16:13:47.222Z,15.47
2022-10-20T16:16:18.906Z,15.32
2022-10-20T16:18:49.163Z,15.43
2022-10-20T16:21:18.860Z,15.45
2022-10-20T16:23:48.501Z,15.44
2022-10-20T16:26:18.159Z,15.40
2022-10-20T16:28:50.806Z,15.52
2022-10-20T16:31:21.134Z,15.48
2022-10-20T16:33:50.941Z,15.41
2022-10-20T16:36:21.880Z,15.30
2022-10-20T16:38:51.613Z,15.34
2022-10-20T16:41:21.393Z,15.34
2022-10-20T16:43:55.400Z,15.48
2022-10-20T16:46:29.012Z,15.52
2022-10-20T16:48:58.809Z,15.48
2022-10-20T16:51:28.523Z,15.38
2022-10-20T16:54:03.016Z,15.32
2022-10-20T16:56:32.942Z,15.30
2022-10-20T16:59:05.500Z,15.35
2022-10-20T17:01:35.127Z,15.35
2022-10-20T17:04:05.070Z,15.37
2022-10-20T17:06:35.097Z,15.32
2022-10-20T17:09:04.827Z,15.28
2022-10-20T17:11:35.803Z,15.27
2022-10-20T17:14:08.115Z,15.33
2022-10-20T17:16:39.875Z,15.29
2022-10-20T17:19:09.850Z,15.35
2022-10-20T17:21:39.571Z,15.43
2022-10-20T17:24:13.155Z,15.27
2022-10-20T17:26:43.808Z,15.26
2022-10-20T17:29:16.128Z,15.30
2022-10-20T17:31:45.814Z,15.45
2022-10-20T17:34:15.537Z,15.45
2022-10-20T17:36:45.246Z,15.26
2022-10-20T17:39:18.076Z,15.31
2022-10-20T17:41:49.875Z,15.28
2022-10-20T17:44:26.711Z,15.35
2022-10-20T17:46:56.591Z,15.27
2022-10-20T17:49:26.168Z,15.21
2022-10-20T17:51:56.459Z,15.12
2022-10-20T17:54:26.241Z,15.10
2022-10-20T17:56:55.947Z,15.21
2022-10-20T17:59:28.266Z,15.29
2022-10-20T18:01:58.744Z,15.23
2022-10-20T18:04:28.480Z,15.24
2022-10-20T18:06:58.132Z,15.19
2022-10-20T18:09:27.722Z,15.35
2022-10-20T18:11:57.385Z,15.16
2022-10-20T18:14:29.684Z,15.13
2022-10-20T18:16:59.455Z,15.17
2022-10-20T18:19:29.424Z,15.27
2022-10-20T18:21:59.245Z,15.30
2022-10-20T18:24:28.866Z,15.21
2022-10-20T18:26:58.758Z,15.26
2022-10-20T18:29:31.017Z,15.37
2022-10-20T18:32:00.858Z,15.31
2022-10-20T18:34:30.481Z,15.37
2022-10-20T18:37:03.580Z,15.39
2022-10-20T18:39:34.293Z,15.17
2022-10-20T18:42:04.087Z,15.08
2022-10-20T18:44:36.422Z,15.22
2022-10-20T18:47:06.154Z,15.12
2022-10-20T18:49:36.356Z,15.03
2022-10-20T18:52:06.337Z,14.95
2022-10-20T18:54:36.045Z,14.84
2022-10-20T18:57:06.935Z,14.99
2022-10-20T18:59:39.360Z,14.98
2022-10-20T19:02:09.316Z,14.95
2022-10-20T19:04:38.945Z,14.95
2022-10-20T19:07:08.838Z,15.06
2022-10-20T19:09:38.723Z,14.96
2022-10-20T19:12:10.579Z,14.89
2022-10-20T19:14:43.176Z,15.05
2022-10-20T19:17:12.886Z,15.01
2022-10-20T19:19:44.694Z,15.10
2022-10-20T19:22:14.741Z,14.98
2022-10-20T19:24:44.554Z,14.83
2022-10-20T19:27:26.173Z,14.87
2022-10-20T19:30:01.074Z,15.02
2022-10-20T19:32:30.799Z,14.83
2022-10-20T19:35:00.707Z,14.94
2022-10-20T19:37:30.394Z,15.12
2022-10-20T19:40:00.532Z,15.00
2022-10-20T19:42:30.268Z,14.98
2022-10-20T19:45:02.679Z,15.09
2022-10-20T19:47:32.373Z,15.00
2022-10-20T19:50:02.191Z,15.03
2022-10-20T19:52:31.902Z,15.07
2022-10-20T19:55:01.692Z,15.06
2022-10-20T19:57:31.420Z,15.04
2022-10-20T20:00:03.696Z,14.93
2022-10-20T20:02:33.426Z,14.94
2022-10-20T20:05:03.396Z,14.88
2022-10-20T20:07:33.163Z,14.90
2022-10-20T20:10:02.821Z,14.82
2022-10-20T20:12:32.673Z,14.82
2022-10-20T20:15:05.024Z,14.66
2022-10-20T20:17:35.029Z,14.73
2022-10-20T20:20:04.957Z,14.84
2022-10-20T20:22:34.720Z,14.76
2022-10-20T20:25:04.499Z,14.76
2022-10-20T20:27:34.234Z,14.75
2022-10-20T20:30:07.565Z,14.76
2022-10-20T20:32:38.634Z,14.74
2022-10-20T20:35:11.381Z,14.64
2022-10-20T20:37:41.193Z,14.66
2022-10-20T20:40:12.037Z,14.70
2022-10-20T20:42:41.789Z,14.76
2022-10-20T20:45:14.348Z,14.65
2022-10-20T20:47:46.835Z,14.59
2022-10-20T20:50:16.809Z,14.57
2022-10-20T20:52:46.690Z,14.62
2022-10-20T20:55:16.586Z,14.70
2022-10-20T20:57:46.325Z,14.62
2022-10-20T21:00:19.477Z,14.63
2022-10-20T21:02:50.079Z,14.68
2022-10-20T21:05:20.047Z,14.53
2022-10-20T21:07:49.852Z,14.48
2022-10-20T21:10:19.815Z,14.64
2022-10-20T21:12:49.618Z,14.63
2022-10-20T21:15:22.184Z,14.60
2022-10-20T21:17:52.899Z,14.68
2022-10-20T21:20:22.619Z,14.71
2022-10-20T21:22:52.294Z,14.62
2022-10-20T21:25:22.081Z,14.70
2022-10-20T21:27:51.822Z,14.62
2022-10-20T21:30:24.214Z,14.76
2022-10-20T21:32:53.956Z,14.60
2022-10-20T21:35:23.689Z,14.54
2022-10-20T21:37:53.408Z,14.54
2022-10-20T21:40:23.084Z,14.66
2022-10-20T21:42:52.777Z,14.49
2022-10-20T21:45:25.000Z,14.56
2022-10-20T21:47:57.661Z,14.51
2022-10-20T21:50:27.431Z,14.63
2022-10-20T21:52:57.192Z,14.61
2022-10-20T21:55:27.005Z,14.50
2022-10-20T21:57:56.760Z,14.46
2022-10-20T22:00:29.052Z,14.48
2022-10-20T22:03:00.356Z,14.54
2022-10-20T22:05:30.075Z,14.56
2022-10-20T22:07:59.719Z,14.54
2022-10-20T22:10:29.710Z,14.50
2022-10-20T22:12:59.442Z,14.46
2022-10-20T22:15:31.826Z,14.61
2022-10-20T22:18:01.414Z,14.64
2022-10-20T22:20:31.019Z,14.69
2022-10-20T22:23:02.778Z,14.60
2022-10-20T22:25:32.652Z,14.50
2022-10-20T22:28:02.233Z,14.41
2022-10-20T22:30:34.476Z,14.28
2022-10-20T22:33:04.653Z,14.37
2022-10-20T22:35:34.326Z,14.29
2022-10-20T22:38:04.001Z,14.36
2022-10-20T22:40:33.637Z,14.27
2022-10-20T22:43:03.509Z,14.42
2022-10-20T22:45:35.918Z,14.31
2022-10-20T22:48:05.646Z,14.31
2022-10-20T22:50:35.330Z,14.37
2022-10-20T22:53:04.993Z,14.39
2022-10-20T22:55:34.665Z,14.40
2022-10-20T22:58:04.397Z,14.36
2022-10-20T23:00:36.732Z,14.31
2022-10-20T23:03:06.703Z,14.44
2022-10-20T23:05:36.496Z,14.37
2022-10-20T23:08:06.410Z,14.18
2022-10-20T23:10:36.342Z,14.36
2022-10-20T23:13:06.102Z,14.25
2022-10-20T23:15:38.468Z,14.33
2022-10-20T23:18:08.142Z,14.28
2022-10-20T23:20:37.869Z,14.35
2022-10-20T23:23:07.606Z,14.26
2022-10-20T23:25:37.399Z,14.22
2022-10-20T23:28:07.471Z,14.17
2022-10-20T23:30:40.140Z,14.07
2022-10-20T23:33:09.812Z,13.96
2022-10-20T23:35:39.965Z,13.89
2022-10-20T23:38:11.342Z,13.85
2022-10-20T23:40:41.162Z,13.88
2022-10-20T23:43:10.855Z,14.10
2022-10-20T23:45:43.207Z,14.11
2022-10-20T23:48:13.842Z,13.94
2022-10-20T23:50:43.769Z,13.98
2022-10-20T23:53:13.816Z,14.08
2022-10-20T23:55:43.822Z,14.16
2022-10-20T23:58:13.966Z,14.12
